sensor_id;sensor_type;location;lat;lon;timestamp;temperature;humidity
22974;DHT22;11653;50.848;4.584;2022-08-18T00:00:38;18.60;99.90
22974;DHT22;11653;50.848;4.584;2022-08-18T00:03:06;18.70;99.90
22974;DHT22;11653;50.848;4.584;2022-08-18T00:05:32;18.60;99.90
22974;DHT22;11653;50.848;4.584;2022-08-18T00:07:58;18.60;99.90
22974;DHT22;11653;50.848;4.584;2022-08-18T00:10:25;18.70;99.90
22974;DHT22;11653;50.848;4.584;2022-08-18T00:12:51;18.70;99.90
22974;DHT22;11653;50.848;4.584;2022-08-18T00:15:18;18.70;99.90
22974;DHT22;11653;50.848;4.584;2022-08-18T00:17:45;18.60;99.90
22974;DHT22;11653;50.848;4.584;2022-08-18T00:20:14;18.50;99.90
22974;DHT22;11653;50.848;4.584;2022-08-18T00:22:40;18.50;99.90
22974;DHT22;11653;50.848;4.584;2022-08-18T00:25:07;18.40;99.90
22974;DHT22;11653;50.848;4.584;2022-08-18T00:27:35;18.40;99.90
22974;DHT22;11653;50.848;4.584;2022-08-18T00:30:09;18.40;99.90
22974;DHT22;11653;50.848;4.584;2022-08-18T00:32:39;18.40;99.90
22974;DHT22;11653;50.848;4.584;2022-08-18T00:35:18;18.40;99.90
22974;DHT22;11653;50.848;4.584;2022-08-18T00:37:45;18.50;99.90
22974;DHT22;11653;50.848;4.584;2022-08-18T00:40:15;18.40;99.90
22974;DHT22;11653;50.848;4.584;2022-08-18T00:42:51;18.40;99.90
22974;DHT22;11653;50.848;4.584;2022-08-18T00:45:21;18.40;99.90
22974;DHT22;11653;50.848;4.584;2022-08-18T00:47:47;18.40;99.90
22974;DHT22;11653;50.848;4.584;2022-08-18T00:50:21;18.40;99.90
22974;DHT22;11653;50.848;4.584;2022-08-18T00:53:11;18.40;99.90
22974;DHT22;11653;50.848;4.584;2022-08-18T00:55:40;18.40;99.90
22974;DHT22;11653;50.848;4.584;2022-08-18T00:58:41;18.40;99.90
22974;DHT22;11653;50.848;4.584;2022-08-18T01:01:10;18.50;99.90
22974;DHT22;11653;50.848;4.584;2022-08-18T01:03:37;18.60;99.90
22974;DHT22;11653;50.848;4.584;2022-08-18T01:06:28;18.50;99.90
22974;DHT22;11653;50.848;4.584;2022-08-18T01:08:58;18.70;99.90
22974;DHT22;11653;50.848;4.584;2022-08-18T01:11:23;18.70;99.90
22974;DHT22;11653;50.848;4.584;2022-08-18T01:13:50;18.70;99.90
22974;DHT22;11653;50.848;4.584;2022-08-18T01:16:16;18.70;99.90
22974;DHT22;11653;50.848;4.584;2022-08-18T01:19:01;18.80;99.90
22974;DHT22;11653;50.848;4.584;2022-08-18T01:21:49;18.90;99.90
22974;DHT22;11653;50.848;4.584;2022-08-18T01:24:16;18.90;99.90
22974;DHT22;11653;50.848;4.584;2022-08-18T01:26:43;18.90;99.90
22974;DHT22;11653;50.848;4.584;2022-08-18T01:29:15;18.90;99.90
22974;DHT22;11653;50.848;4.584;2022-08-18T01:31:52;18.90;99.90
22974;DHT22;11653;50.848;4.584;2022-08-18T01:34:23;19.00;99.90
22974;DHT22;11653;50.848;4.584;2022-08-18T01:36:50;19.10;99.90
22974;DHT22;11653;50.848;4.584;2022-08-18T01:39:18;19.10;99.90
22974;DHT22;11653;50.848;4.584;2022-08-18T01:41:44;19.10;99.90
22974;DHT22;11653;50.848;4.584;2022-08-18T01:44:10;19.30;99.90
22974;DHT22;11653;50.848;4.584;2022-08-18T01:46:38;19.20;99.90
22974;DHT22;11653;50.848;4.584;2022-08-18T01:49:05;19.30;99.90
22974;DHT22;11653;50.848;4.584;2022-08-18T01:51:32;19.30;99.90
22974;DHT22;11653;50.848;4.584;2022-08-18T01:54:00;19.30;99.90
22974;DHT22;11653;50.848;4.584;2022-08-18T01:56:26;19.40;99.90
22974;DHT22;11653;50.848;4.584;2022-08-18T01:58:54;19.40;99.90
22974;DHT22;11653;50.848;4.584;2022-08-18T02:01:21;19.40;99.90
22974;DHT22;11653;50.848;4.584;2022-08-18T02:03:52;19.60;99.90
22974;DHT22;11653;50.848;4.584;2022-08-18T02:06:20;19.60;99.90
22974;DHT22;11653;50.848;4.584;2022-08-18T02:08:46;19.70;99.90
22974;DHT22;11653;50.848;4.584;2022-08-18T02:11:13;19.70;99.90
22974;DHT22;11653;50.848;4.584;2022-08-18T02:13:39;19.70;99.90
22974;DHT22;11653;50.848;4.584;2022-08-18T02:16:05;19.70;99.90
22974;DHT22;11653;50.848;4.584;2022-08-18T02:18:34;19.80;99.90
22974;DHT22;11653;50.848;4.584;2022-08-18T02:21:16;19.90;99.90
22974;DHT22;11653;50.848;4.584;2022-08-18T02:23:43;20.00;99.90
22974;DHT22;11653;50.848;4.584;2022-08-18T02:26:12;20.00;99.90
22974;DHT22;11653;50.848;4.584;2022-08-18T02:28:38;20.00;99.90
22974;DHT22;11653;50.848;4.584;2022-08-18T02:31:05;20.00;99.90
22974;DHT22;11653;50.848;4.584;2022-08-18T02:33:32;20.00;99.90
22974;DHT22;11653;50.848;4.584;2022-08-18T02:35:58;20.00;99.90
22974;DHT22;11653;50.848;4.584;2022-08-18T02:38:24;20.00;99.90
22974;DHT22;11653;50.848;4.584;2022-08-18T02:40:55;19.90;99.90
22974;DHT22;11653;50.848;4.584;2022-08-18T02:43:21;20.00;99.90
22974;DHT22;11653;50.848;4.584;2022-08-18T02:45:47;20.00;99.90
22974;DHT22;11653;50.848;4.584;2022-08-18T02:48:13;20.00;99.90
22974;DHT22;11653;50.848;4.584;2022-08-18T02:50:38;20.00;99.90
22974;DHT22;11653;50.848;4.584;2022-08-18T02:53:14;20.10;99.90
22974;DHT22;11653;50.848;4.584;2022-08-18T02:55:49;20.20;99.90
22974;DHT22;11653;50.848;4.584;2022-08-18T02:58:15;20.10;99.90
22974;DHT22;11653;50.848;4.584;2022-08-18T03:00:41;20.00;99.90
22974;DHT22;11653;50.848;4.584;2022-08-18T03:03:07;19.90;99.90
22974;DHT22;11653;50.848;4.584;2022-08-18T03:05:33;20.10;99.90
22974;DHT22;11653;50.848;4.584;2022-08-18T03:07:59;20.10;99.90
22974;DHT22;11653;50.848;4.584;2022-08-18T03:10:25;20.30;99.90
22974;DHT22;11653;50.848;4.584;2022-08-18T03:12:50;20.20;99.90
22974;DHT22;11653;50.848;4.584;2022-08-18T03:15:17;20.20;99.90
22974;DHT22;11653;50.848;4.584;2022-08-18T03:17:43;20.20;99.90
22974;DHT22;11653;50.848;4.584;2022-08-18T03:20:09;20.20;99.90
22974;DHT22;11653;50.848;4.584;2022-08-18T03:22:36;20.20;99.90
22974;DHT22;11653;50.848;4.584;2022-08-18T03:25:03;20.20;99.90
22974;DHT22;11653;50.848;4.584;2022-08-18T03:27:29;20.20;99.90
22974;DHT22;11653;50.848;4.584;2022-08-18T03:29:55;20.30;99.90
22974;DHT22;11653;50.848;4.584;2022-08-18T03:32:20;20.30;99.90
22974;DHT22;11653;50.848;4.584;2022-08-18T03:34:46;20.30;99.90
22974;DHT22;11653;50.848;4.584;2022-08-18T03:37:12;20.40;99.90
22974;DHT22;11653;50.848;4.584;2022-08-18T03:39:40;20.30;99.90
22974;DHT22;11653;50.848;4.584;2022-08-18T03:42:07;20.30;99.90
22974;DHT22;11653;50.848;4.584;2022-08-18T03:44:34;20.30;99.90
22974;DHT22;11653;50.848;4.584;2022-08-18T03:47:07;20.30;99.90
22974;DHT22;11653;50.848;4.584;2022-08-18T03:49:34;20.30;99.90
22974;DHT22;11653;50.848;4.584;2022-08-18T03:52:00;20.30;99.90
22974;DHT22;11653;50.848;4.584;2022-08-18T03:54:26;20.40;99.90
22974;DHT22;11653;50.848;4.584;2022-08-18T03:56:51;20.50;99.90
22974;DHT22;11653;50.848;4.584;2022-08-18T03:59:22;20.50;99.90
22974;DHT22;11653;50.848;4.584;2022-08-18T04:01:49;20.50;99.90
22974;DHT22;11653;50.848;4.584;2022-08-18T04:04:21;20.50;99.90
22974;DHT22;11653;50.848;4.584;2022-08-18T04:06:52;20.50;99.90
22974;DHT22;11653;50.848;4.584;2022-08-18T04:09:19;20.60;99.90
22974;DHT22;11653;50.848;4.584;2022-08-18T04:11:46;20.60;99.90
22974;DHT22;11653;50.848;4.584;2022-08-18T04:14:14;20.60;99.90
22974;DHT22;11653;50.848;4.584;2022-08-18T04:16:41;20.70;99.90
22974;DHT22;11653;50.848;4.584;2022-08-18T04:19:07;20.70;99.90
22974;DHT22;11653;50.848;4.584;2022-08-18T04:21:36;20.80;99.90
22974;DHT22;11653;50.848;4.584;2022-08-18T04:24:03;20.80;99.90
22974;DHT22;11653;50.848;4.584;2022-08-18T04:26:35;20.70;99.90
22974;DHT22;11653;50.848;4.584;2022-08-18T04:29:01;20.70;99.90
22974;DHT22;11653;50.848;4.584;2022-08-18T04:31:28;20.80;99.90
22974;DHT22;11653;50.848;4.584;2022-08-18T04:33:54;20.80;99.90
22974;DHT22;11653;50.848;4.584;2022-08-18T04:36:21;20.80;99.90
22974;DHT22;11653;50.848;4.584;2022-08-18T04:38:47;20.70;99.90
22974;DHT22;11653;50.848;4.584;2022-08-18T04:41:14;20.70;99.90
22974;DHT22;11653;50.848;4.584;2022-08-18T04:43:40;20.70;99.90
22974;DHT22;11653;50.848;4.584;2022-08-18T04:46:07;20.60;99.90
22974;DHT22;11653;50.848;4.584;2022-08-18T04:48:36;20.70;99.90
22974;DHT22;11653;50.848;4.584;2022-08-18T04:51:13;20.80;99.90
22974;DHT22;11653;50.848;4.584;2022-08-18T04:53:40;20.80;99.90
22974;DHT22;11653;50.848;4.584;2022-08-18T04:56:24;20.90;99.90
22974;DHT22;11653;50.848;4.584;2022-08-18T04:59:00;20.90;99.90
22974;DHT22;11653;50.848;4.584;2022-08-18T05:01:33;20.80;99.90
22974;DHT22;11653;50.848;4.584;2022-08-18T05:03:59;20.80;99.90
22974;DHT22;11653;50.848;4.584;2022-08-18T05:06:27;20.70;99.90
22974;DHT22;11653;50.848;4.584;2022-08-18T05:08:56;20.80;99.90
22974;DHT22;11653;50.848;4.584;2022-08-18T05:11:23;20.80;99.90
22974;DHT22;11653;50.848;4.584;2022-08-18T05:13:50;20.90;99.90
22974;DHT22;11653;50.848;4.584;2022-08-18T05:16:20;20.80;99.90
22974;DHT22;11653;50.848;4.584;2022-08-18T05:18:46;20.90;99.90
22974;DHT22;11653;50.848;4.584;2022-08-18T05:21:12;20.90;99.90
22974;DHT22;11653;50.848;4.584;2022-08-18T05:23:41;21.00;99.90
22974;DHT22;11653;50.848;4.584;2022-08-18T05:26:08;21.00;99.90
22974;DHT22;11653;50.848;4.584;2022-08-18T05:28:34;20.90;99.90
22974;DHT22;11653;50.848;4.584;2022-08-18T05:31:19;21.00;99.90
22974;DHT22;11653;50.848;4.584;2022-08-18T05:33:46;21.00;99.90
22974;DHT22;11653;50.848;4.584;2022-08-18T05:41:39;21.00;99.90
22974;DHT22;11653;50.848;4.584;2022-08-18T05:44:07;21.10;99.90
22974;DHT22;11653;50.848;4.584;2022-08-18T05:46:55;21.10;99.90
22974;DHT22;11653;50.848;4.584;2022-08-18T05:49:25;21.20;99.90
22974;DHT22;11653;50.848;4.584;2022-08-18T05:51:58;21.10;99.90
22974;DHT22;11653;50.848;4.584;2022-08-18T05:54:35;21.20;99.90
22974;DHT22;11653;50.848;4.584;2022-08-18T05:57:22;21.20;99.90
22974;DHT22;11653;50.848;4.584;2022-08-18T05:59:51;21.20;99.90
22974;DHT22;11653;50.848;4.584;2022-08-18T06:02:43;21.30;99.90
22974;DHT22;11653;50.848;4.584;2022-08-18T06:05:23;21.40;99.90
22974;DHT22;11653;50.848;4.584;2022-08-18T06:07:57;21.40;99.90
22974;DHT22;11653;50.848;4.584;2022-08-18T06:10:23;21.50;99.90
22974;DHT22;11653;50.848;4.584;2022-08-18T06:12:56;21.50;99.90
22974;DHT22;11653;50.848;4.584;2022-08-18T06:15:36;21.50;99.90
22974;DHT22;11653;50.848;4.584;2022-08-18T06:34:13;21.80;99.90
22974;DHT22;11653;50.848;4.584;2022-08-18T06:37:03;21.80;99.90
22974;DHT22;11653;50.848;4.584;2022-08-18T06:39:56;21.80;99.90
22974;DHT22;11653;50.848;4.584;2022-08-18T06:42:25;21.90;99.90
22974;DHT22;11653;50.848;4.584;2022-08-18T06:45:01;21.90;99.90
22974;DHT22;11653;50.848;4.584;2022-08-18T06:47:58;22.00;99.90
22974;DHT22;11653;50.848;4.584;2022-08-18T06:50:29;22.00;99.90
22974;DHT22;11653;50.848;4.584;2022-08-18T06:53:00;22.00;99.90
22974;DHT22;11653;50.848;4.584;2022-08-18T06:55:38;22.10;99.90
22974;DHT22;11653;50.848;4.584;2022-08-18T07:01:04;22.20;99.90
22974;DHT22;11653;50.848;4.584;2022-08-18T07:06:03;22.20;99.90
22974;DHT22;11653;50.848;4.584;2022-08-18T07:08:34;22.20;99.90
22974;DHT22;11653;50.848;4.584;2022-08-18T07:11:26;22.10;99.90
22974;DHT22;11653;50.848;4.584;2022-08-18T07:14:12;22.10;99.90
22974;DHT22;11653;50.848;4.584;2022-08-18T07:16:38;22.30;99.90
22974;DHT22;11653;50.848;4.584;2022-08-18T07:19:16;22.50;99.90
22974;DHT22;11653;50.848;4.584;2022-08-18T07:21:46;22.70;99.90
22974;DHT22;11653;50.848;4.584;2022-08-18T07:24:31;22.80;99.90
22974;DHT22;11653;50.848;4.584;2022-08-18T07:27:16;23.00;99.90
22974;DHT22;11653;50.848;4.584;2022-08-18T07:30:07;23.40;99.90
22974;DHT22;11653;50.848;4.584;2022-08-18T07:35:52;24.20;99.90
22974;DHT22;11653;50.848;4.584;2022-08-18T07:38:30;24.20;99.90
22974;DHT22;11653;50.848;4.584;2022-08-18T07:41:08;24.30;99.90
22974;DHT22;11653;50.848;4.584;2022-08-18T07:48:59;26.30;99.90
22974;DHT22;11653;50.848;4.584;2022-08-18T07:51:56;27.20;99.90
22974;DHT22;11653;50.848;4.584;2022-08-18T07:54:50;27.50;99.90
22974;DHT22;11653;50.848;4.584;2022-08-18T07:57:27;27.60;99.90
22974;DHT22;11653;50.848;4.584;2022-08-18T08:03:33;28.60;99.90
22974;DHT22;11653;50.848;4.584;2022-08-18T08:08:47;29.50;97.80
22974;DHT22;11653;50.848;4.584;2022-08-18T08:16:46;29.60;94.70
22974;DHT22;11653;50.848;4.584;2022-08-18T08:19:28;29.70;94.20
22974;DHT22;11653;50.848;4.584;2022-08-18T08:25:09;30.90;92.90
22974;DHT22;11653;50.848;4.584;2022-08-18T08:31:00;32.10;90.30
22974;DHT22;11653;50.848;4.584;2022-08-18T08:33:41;32.30;86.00
22974;DHT22;11653;50.848;4.584;2022-08-18T08:36:14;32.30;86.20
22974;DHT22;11653;50.848;4.584;2022-08-18T08:38:51;32.00;85.90
22974;DHT22;11653;50.848;4.584;2022-08-18T08:41:28;31.70;85.80
22974;DHT22;11653;50.848;4.584;2022-08-18T08:44:21;31.50;85.90
22974;DHT22;11653;50.848;4.584;2022-08-18T08:51:55;30.60;88.50
22974;DHT22;11653;50.848;4.584;2022-08-18T08:54:28;30.20;90.20
22974;DHT22;11653;50.848;4.584;2022-08-18T08:56:58;30.40;90.20
22974;DHT22;11653;50.848;4.584;2022-08-18T08:59:25;31.20;89.40
22974;DHT22;11653;50.848;4.584;2022-08-18T09:04:22;33.00;79.70
22974;DHT22;11653;50.848;4.584;2022-08-18T09:15:13;35.30;70.80
22974;DHT22;11653;50.848;4.584;2022-08-18T09:23:24;34.30;70.70
22974;DHT22;11653;50.848;4.584;2022-08-18T09:25:56;33.30;73.70
22974;DHT22;11653;50.848;4.584;2022-08-18T09:39:00;32.80;74.40
22974;DHT22;11653;50.848;4.584;2022-08-18T09:41:59;32.60;74.90
22974;DHT22;11653;50.848;4.584;2022-08-18T09:47:11;34.00;70.60
22974;DHT22;11653;50.848;4.584;2022-08-18T09:49:41;33.90;68.20
22974;DHT22;11653;50.848;4.584;2022-08-18T09:57:44;36.20;65.10
22974;DHT22;11653;50.848;4.584;2022-08-18T10:17:33;35.40;64.10
22974;DHT22;11653;50.848;4.584;2022-08-18T10:19:28;34.90;64.50
22974;DHT22;11653;50.848;4.584;2022-08-18T10:42:44;37.00;58.60
22974;DHT22;11653;50.848;4.584;2022-08-18T10:45:30;37.90;58.10
22974;DHT22;11653;50.848;4.584;2022-08-18T10:50:36;39.00;55.30
22974;DHT22;11653;50.848;4.584;2022-08-18T10:53:21;39.20;54.00
22974;DHT22;11653;50.848;4.584;2022-08-18T10:56:07;39.20;53.30
22974;DHT22;11653;50.848;4.584;2022-08-18T11:04:46;35.40;59.20
22974;DHT22;11653;50.848;4.584;2022-08-18T11:09:42;33.50;63.50
22974;DHT22;11653;50.848;4.584;2022-08-18T11:12:11;33.10;65.60
22974;DHT22;11653;50.848;4.584;2022-08-18T11:17:43;32.10;67.20
22974;DHT22;11653;50.848;4.584;2022-08-18T11:20:14;31.80;70.20
22974;DHT22;11653;50.848;4.584;2022-08-18T11:22:50;31.90;69.40
22974;DHT22;11653;50.848;4.584;2022-08-18T11:25:27;32.60;65.90
22974;DHT22;11653;50.848;4.584;2022-08-18T11:27:53;33.30;65.70
22974;DHT22;11653;50.848;4.584;2022-08-18T11:30:20;34.20;64.20
22974;DHT22;11653;50.848;4.584;2022-08-18T11:32:48;34.80;62.80
22974;DHT22;11653;50.848;4.584;2022-08-18T11:35:20;34.80;61.20
22974;DHT22;11653;50.848;4.584;2022-08-18T11:38:12;34.50;61.70
22974;DHT22;11653;50.848;4.584;2022-08-18T11:40:40;34.10;61.70
22974;DHT22;11653;50.848;4.584;2022-08-18T11:43:26;33.40;62.50
22974;DHT22;11653;50.848;4.584;2022-08-18T11:45:59;33.40;63.00
22974;DHT22;11653;50.848;4.584;2022-08-18T11:58:49;34.70;60.30
22974;DHT22;11653;50.848;4.584;2022-08-18T12:04:14;35.80;57.90
22974;DHT22;11653;50.848;4.584;2022-08-18T12:11:54;37.80;54.30
22974;DHT22;11653;50.848;4.584;2022-08-18T12:14:26;38.20;53.60
22974;DHT22;11653;50.848;4.584;2022-08-18T12:16:53;37.60;52.80
22974;DHT22;11653;50.848;4.584;2022-08-18T12:19:19;36.60;55.20
22974;DHT22;11653;50.848;4.584;2022-08-18T12:21:53;35.80;56.10
22974;DHT22;11653;50.848;4.584;2022-08-18T12:24:23;34.90;58.40
22974;DHT22;11653;50.848;4.584;2022-08-18T12:26:50;34.10;59.70
22974;DHT22;11653;50.848;4.584;2022-08-18T12:29:17;33.50;61.10
22974;DHT22;11653;50.848;4.584;2022-08-18T12:31:47;33.00;63.30
22974;DHT22;11653;50.848;4.584;2022-08-18T12:34:19;32.80;65.20
22974;DHT22;11653;50.848;4.584;2022-08-18T12:36:49;32.60;63.70
22974;DHT22;11653;50.848;4.584;2022-08-18T12:39:15;32.20;64.30
22974;DHT22;11653;50.848;4.584;2022-08-18T12:41:40;32.20;66.10
22974;DHT22;11653;50.848;4.584;2022-08-18T12:44:06;31.80;66.20
22974;DHT22;11653;50.848;4.584;2022-08-18T12:46:32;31.30;67.90
22974;DHT22;11653;50.848;4.584;2022-08-18T12:48:57;30.90;68.20
22974;DHT22;11653;50.848;4.584;2022-08-18T12:51:23;30.30;71.00
22974;DHT22;11653;50.848;4.584;2022-08-18T12:53:49;30.40;68.90
22974;DHT22;11653;50.848;4.584;2022-08-18T12:56:20;30.60;70.00
22974;DHT22;11653;50.848;4.584;2022-08-18T12:58:47;30.70;70.30
22974;DHT22;11653;50.848;4.584;2022-08-18T13:01:14;30.80;68.80
22974;DHT22;11653;50.848;4.584;2022-08-18T13:03:40;30.70;69.30
22974;DHT22;11653;50.848;4.584;2022-08-18T13:06:06;30.60;69.40
22974;DHT22;11653;50.848;4.584;2022-08-18T13:08:31;30.60;70.90
22974;DHT22;11653;50.848;4.584;2022-08-18T13:10:57;30.50;68.50
22974;DHT22;11653;50.848;4.584;2022-08-18T13:13:25;30.30;69.80
22974;DHT22;11653;50.848;4.584;2022-08-18T13:15:51;30.30;70.20
22974;DHT22;11653;50.848;4.584;2022-08-18T13:18:18;30.40;69.90
22974;DHT22;11653;50.848;4.584;2022-08-18T13:20:44;30.40;70.30
22974;DHT22;11653;50.848;4.584;2022-08-18T13:23:10;30.50;70.80
22974;DHT22;11653;50.848;4.584;2022-08-18T13:25:36;30.60;69.80
22974;DHT22;11653;50.848;4.584;2022-08-18T13:28:03;30.60;69.90
22974;DHT22;11653;50.848;4.584;2022-08-18T13:30:30;30.40;70.90
22974;DHT22;11653;50.848;4.584;2022-08-18T13:32:56;30.20;70.60
22974;DHT22;11653;50.848;4.584;2022-08-18T13:35:22;30.10;70.00
22974;DHT22;11653;50.848;4.584;2022-08-18T13:37:47;30.10;69.80
22974;DHT22;11653;50.848;4.584;2022-08-18T13:40:13;30.20;69.90
22974;DHT22;11653;50.848;4.584;2022-08-18T13:42:45;30.20;70.10
22974;DHT22;11653;50.848;4.584;2022-08-18T13:45:14;30.30;69.10
22974;DHT22;11653;50.848;4.584;2022-08-18T13:47:40;30.50;70.50
22974;DHT22;11653;50.848;4.584;2022-08-18T13:50:07;30.70;70.40
22974;DHT22;11653;50.848;4.584;2022-08-18T13:52:32;30.80;67.60
22974;DHT22;11653;50.848;4.584;2022-08-18T13:54:58;30.70;68.60
22974;DHT22;11653;50.848;4.584;2022-08-18T13:57:24;30.60;70.50
22974;DHT22;11653;50.848;4.584;2022-08-18T13:59:49;30.90;70.30
22974;DHT22;11653;50.848;4.584;2022-08-18T14:02:15;31.00;71.00
22974;DHT22;11653;50.848;4.584;2022-08-18T14:04:41;31.00;69.60
22974;DHT22;11653;50.848;4.584;2022-08-18T14:07:07;31.00;69.60
22974;DHT22;11653;50.848;4.584;2022-08-18T14:09:33;31.10;70.30
22974;DHT22;11653;50.848;4.584;2022-08-18T14:12:02;31.10;70.50
22974;DHT22;11653;50.848;4.584;2022-08-18T14:14:29;31.00;71.30
22974;DHT22;11653;50.848;4.584;2022-08-18T14:16:55;31.00;70.60
22974;DHT22;11653;50.848;4.584;2022-08-18T14:19:21;31.00;70.20
22974;DHT22;11653;50.848;4.584;2022-08-18T14:22:05;30.90;69.10
22974;DHT22;11653;50.848;4.584;2022-08-18T14:24:50;30.80;68.40
22974;DHT22;11653;50.848;4.584;2022-08-18T14:27:36;30.80;70.20
22974;DHT22;11653;50.848;4.584;2022-08-18T14:30:08;30.70;68.80
22974;DHT22;11653;50.848;4.584;2022-08-18T14:32:34;30.50;70.90
22974;DHT22;11653;50.848;4.584;2022-08-18T14:35:02;30.50;69.50
22974;DHT22;11653;50.848;4.584;2022-08-18T14:37:29;30.60;69.30
22974;DHT22;11653;50.848;4.584;2022-08-18T14:39:55;30.50;72.10
22974;DHT22;11653;50.848;4.584;2022-08-18T14:42:20;30.70;70.70
22974;DHT22;11653;50.848;4.584;2022-08-18T14:44:47;30.70;68.50
22974;DHT22;11653;50.848;4.584;2022-08-18T14:47:13;30.60;69.80
22974;DHT22;11653;50.848;4.584;2022-08-18T14:49:40;30.70;68.30
22974;DHT22;11653;50.848;4.584;2022-08-18T14:52:07;30.80;68.10
22974;DHT22;11653;50.848;4.584;2022-08-18T14:54:35;30.50;69.40
22974;DHT22;11653;50.848;4.584;2022-08-18T14:57:01;30.50;67.60
22974;DHT22;11653;50.848;4.584;2022-08-18T14:59:31;30.60;67.80
22974;DHT22;11653;50.848;4.584;2022-08-18T15:01:57;30.80;66.90
22974;DHT22;11653;50.848;4.584;2022-08-18T15:04:23;30.90;67.80
22974;DHT22;11653;50.848;4.584;2022-08-18T15:06:49;31.00;68.20
22974;DHT22;11653;50.848;4.584;2022-08-18T15:09:15;31.10;67.60
22974;DHT22;11653;50.848;4.584;2022-08-18T15:11:41;31.10;67.90
22974;DHT22;11653;50.848;4.584;2022-08-18T15:14:07;31.00;66.70
22974;DHT22;11653;50.848;4.584;2022-08-18T15:16:33;31.00;67.20
22974;DHT22;11653;50.848;4.584;2022-08-18T15:19:00;31.10;66.50
22974;DHT22;11653;50.848;4.584;2022-08-18T15:21:27;30.90;67.40
22974;DHT22;11653;50.848;4.584;2022-08-18T15:24:11;30.90;66.60
22974;DHT22;11653;50.848;4.584;2022-08-18T15:26:57;30.90;67.60
22974;DHT22;11653;50.848;4.584;2022-08-18T15:29:24;30.80;67.90
22974;DHT22;11653;50.848;4.584;2022-08-18T15:31:50;30.50;67.90
22974;DHT22;11653;50.848;4.584;2022-08-18T15:34:16;30.30;69.70
22974;DHT22;11653;50.848;4.584;2022-08-18T15:36:42;30.00;70.40
22974;DHT22;11653;50.848;4.584;2022-08-18T15:39:08;29.90;70.90
22974;DHT22;11653;50.848;4.584;2022-08-18T15:41:40;29.70;71.10
22974;DHT22;11653;50.848;4.584;2022-08-18T15:44:07;29.80;71.70
22974;DHT22;11653;50.848;4.584;2022-08-18T15:46:35;29.70;71.30
22974;DHT22;11653;50.848;4.584;2022-08-18T15:49:03;29.70;71.60
22974;DHT22;11653;50.848;4.584;2022-08-18T15:51:37;29.80;72.50
22974;DHT22;11653;50.848;4.584;2022-08-18T15:54:04;29.70;71.70
22974;DHT22;11653;50.848;4.584;2022-08-18T15:56:31;29.70;72.50
22974;DHT22;11653;50.848;4.584;2022-08-18T15:58:57;29.50;72.80
22974;DHT22;11653;50.848;4.584;2022-08-18T16:01:24;29.40;74.30
22974;DHT22;11653;50.848;4.584;2022-08-18T16:03:51;29.30;74.40
22974;DHT22;11653;50.848;4.584;2022-08-18T16:06:22;29.10;74.60
22974;DHT22;11653;50.848;4.584;2022-08-18T16:08:50;29.10;75.60
22974;DHT22;11653;50.848;4.584;2022-08-18T16:11:16;29.00;76.40
22974;DHT22;11653;50.848;4.584;2022-08-18T16:13:43;28.90;76.10
22974;DHT22;11653;50.848;4.584;2022-08-18T16:16:12;28.90;75.40
22974;DHT22;11653;50.848;4.584;2022-08-18T16:18:39;29.00;75.80
22974;DHT22;11653;50.848;4.584;2022-08-18T16:21:10;29.10;75.70
22974;DHT22;11653;50.848;4.584;2022-08-18T16:23:41;29.10;75.10
22974;DHT22;11653;50.848;4.584;2022-08-18T16:26:08;29.10;75.20
22974;DHT22;11653;50.848;4.584;2022-08-18T16:28:34;29.00;74.80
22974;DHT22;11653;50.848;4.584;2022-08-18T16:31:00;28.90;75.80
22974;DHT22;11653;50.848;4.584;2022-08-18T16:33:26;28.90;76.00
22974;DHT22;11653;50.848;4.584;2022-08-18T16:35:52;28.90;75.90
22974;DHT22;11653;50.848;4.584;2022-08-18T16:38:19;28.80;75.90
22974;DHT22;11653;50.848;4.584;2022-08-18T16:40:44;28.90;75.70
22974;DHT22;11653;50.848;4.584;2022-08-18T16:43:11;28.80;75.30
22974;DHT22;11653;50.848;4.584;2022-08-18T16:45:40;28.80;76.00
22974;DHT22;11653;50.848;4.584;2022-08-18T16:48:08;28.80;75.90
22974;DHT22;11653;50.848;4.584;2022-08-18T16:50:35;28.80;76.10
22974;DHT22;11653;50.848;4.584;2022-08-18T16:53:02;28.90;77.30
22974;DHT22;11653;50.848;4.584;2022-08-18T16:55:30;28.90;77.50
22974;DHT22;11653;50.848;4.584;2022-08-18T16:57:56;28.90;78.30
22974;DHT22;11653;50.848;4.584;2022-08-18T17:00:41;28.90;77.30
22974;DHT22;11653;50.848;4.584;2022-08-18T17:03:25;28.90;78.00
22974;DHT22;11653;50.848;4.584;2022-08-18T17:06:13;28.90;78.20
22974;DHT22;11653;50.848;4.584;2022-08-18T17:08:40;28.80;78.90
22974;DHT22;11653;50.848;4.584;2022-08-18T17:11:17;28.70;78.90
22974;DHT22;11653;50.848;4.584;2022-08-18T17:13:45;28.70;79.40
22974;DHT22;11653;50.848;4.584;2022-08-18T17:16:11;28.70;79.20
22974;DHT22;11653;50.848;4.584;2022-08-18T17:18:39;28.70;78.40
22974;DHT22;11653;50.848;4.584;2022-08-18T17:21:07;28.70;77.90
22974;DHT22;11653;50.848;4.584;2022-08-18T17:23:33;28.60;78.30
22974;DHT22;11653;50.848;4.584;2022-08-18T17:26:00;28.60;78.30
22974;DHT22;11653;50.848;4.584;2022-08-18T17:28:43;28.60;78.90
22974;DHT22;11653;50.848;4.584;2022-08-18T17:31:10;28.60;77.70
22974;DHT22;11653;50.848;4.584;2022-08-18T17:33:38;28.50;77.80
22974;DHT22;11653;50.848;4.584;2022-08-18T17:36:07;28.40;78.70
22974;DHT22;11653;50.848;4.584;2022-08-18T17:39:06;28.50;78.10
22974;DHT22;11653;50.848;4.584;2022-08-18T17:41:33;28.30;77.80
22974;DHT22;11653;50.848;4.584;2022-08-18T17:44:19;28.30;78.60
22974;DHT22;11653;50.848;4.584;2022-08-18T17:46:45;28.20;77.50
22974;DHT22;11653;50.848;4.584;2022-08-18T17:49:59;28.20;77.70
22974;DHT22;11653;50.848;4.584;2022-08-18T17:52:20;28.20;77.40
22974;DHT22;11653;50.848;4.584;2022-08-18T17:54:51;28.30;76.90
22974;DHT22;11653;50.848;4.584;2022-08-18T17:57:24;28.20;77.70
22974;DHT22;11653;50.848;4.584;2022-08-18T18:00:07;28.10;77.00
22974;DHT22;11653;50.848;4.584;2022-08-18T18:02:39;28.10;78.10
22974;DHT22;11653;50.848;4.584;2022-08-18T18:05:08;28.00;77.90
22974;DHT22;11653;50.848;4.584;2022-08-18T18:10:53;27.90;77.50
22974;DHT22;11653;50.848;4.584;2022-08-18T18:15:51;27.80;78.70
22974;DHT22;11653;50.848;4.584;2022-08-18T18:18:34;27.70;79.80
22974;DHT22;11653;50.848;4.584;2022-08-18T18:21:19;27.60;80.40
22974;DHT22;11653;50.848;4.584;2022-08-18T18:26:37;27.50;80.60
22974;DHT22;11653;50.848;4.584;2022-08-18T18:29:22;27.30;81.50
22974;DHT22;11653;50.848;4.584;2022-08-18T18:32:21;27.20;82.70
22974;DHT22;11653;50.848;4.584;2022-08-18T18:37:42;27.00;84.50
22974;DHT22;11653;50.848;4.584;2022-08-18T18:40:37;26.90;84.70
22974;DHT22;11653;50.848;4.584;2022-08-18T18:43:27;26.70;85.40
22974;DHT22;11653;50.848;4.584;2022-08-18T18:46:28;26.60;86.50
22974;DHT22;11653;50.848;4.584;2022-08-18T18:49:23;26.40;88.80